sensor_id;sensor_type;location;lat;lon;timestamp;pressure;altitude;pressure_sealevel;temperature;humidity
70015;BME280;57358;51.094;6.760;2023-04-08T00:00:15;101704.06;;;7.93;100.00
70015;BME280;57358;51.094;6.760;2023-04-08T00:02:42;101697.97;;;7.94;100.00
70015;BME280;57358;51.094;6.760;2023-04-08T00:05:08;101653.56;;;7.58;100.00
70015;BME280;57358;51.094;6.760;2023-04-08T00:07:35;101558.41;;;6.96;100.00
70015;BME280;57358;51.094;6.760;2023-04-08T00:10:02;101708.59;;;7.86;100.00
70015;BME280;57358;51.094;6.760;2023-04-08T00:12:29;101716.44;;;7.86;100.00
70015;BME280;57358;51.094;6.760;2023-04-08T00:14:58;101668.25;;;7.62;100.00
70015;BME280;57358;51.094;6.760;2023-04-08T00:17:24;101708.38;;;7.95;100.00
70015;BME280;57358;51.094;6.760;2023-04-08T00:19:52;101717.81;;;8.01;100.00
70015;BME280;57358;51.094;6.760;2023-04-08T00:22:18;101710.00;;;7.99;100.00
70015;BME280;57358;51.094;6.760;2023-04-08T00:24:45;101651.97;;;7.51;100.00
70015;BME280;57358;51.094;6.760;2023-04-08T00:27:11;101715.22;;;7.99;100.00
70015;BME280;57358;51.094;6.760;2023-04-08T00:29:37;101707.44;;;7.98;100.00
70015;BME280;57358;51.094;6.760;2023-04-08T00:32:04;101713.53;;;7.98;100.00
70015;BME280;57358;51.094;6.760;2023-04-08T00:34:30;101669.25;;;7.56;100.00
70015;BME280;57358;51.094;6.760;2023-04-08T00:36:57;101722.56;;;7.85;100.00
70015;BME280;57358;51.094;6.760;2023-04-08T00:39:23;101727.72;;;7.88;100.00
70015;BME280;57358;51.094;6.760;2023-04-08T00:41:49;101729.44;;;7.89;100.00
70015;BME280;57358;51.094;6.760;2023-04-08T00:44:16;101705.47;;;7.72;100.00
70015;BME280;57358;51.094;6.760;2023-04-08T00:46:42;101723.22;;;7.93;100.00
70015;BME280;57358;51.094;6.760;2023-04-08T00:49:09;101722.72;;;7.79;100.00
70015;BME280;57358;51.094;6.760;2023-04-08T00:51:35;101724.59;;;7.74;100.00
70015;BME280;57358;51.094;6.760;2023-04-08T00:54:03;101699.56;;;7.64;100.00
70015;BME280;57358;51.094;6.760;2023-04-08T00:56:33;101647.22;;;7.31;100.00
70015;BME280;57358;51.094;6.760;2023-04-08T00:59:00;101703.69;;;7.74;100.00
70015;BME280;57358;51.094;6.760;2023-04-08T01:04:43;101729.56;;;7.83;100.00
70015;BME280;57358;51.094;6.760;2023-04-08T01:07:16;101680.44;;;7.62;100.00
70015;BME280;57358;51.094;6.760;2023-04-08T01:09:47;101726.81;;;7.89;100.00
70015;BME280;57358;51.094;6.760;2023-04-08T01:12:22;101731.88;;;7.95;100.00
70015;BME280;57358;51.094;6.760;2023-04-08T01:14:58;101656.25;;;7.53;100.00
70015;BME280;57358;51.094;6.760;2023-04-08T01:17:28;101670.91;;;7.61;100.00
70015;BME280;57358;51.094;6.760;2023-04-08T01:19:57;101729.50;;;7.88;100.00
70015;BME280;57358;51.094;6.760;2023-04-08T01:22:43;101728.53;;;7.90;100.00
70015;BME280;57358;51.094;6.760;2023-04-08T01:25:16;101739.66;;;7.98;100.00
70015;BME280;57358;51.094;6.760;2023-04-08T01:27:43;101686.47;;;7.65;100.00
70015;BME280;57358;51.094;6.760;2023-04-08T01:30:11;101727.63;;;7.91;100.00
70015;BME280;57358;51.094;6.760;2023-04-08T01:32:38;101738.19;;;7.88;100.00
70015;BME280;57358;51.094;6.760;2023-04-08T01:35:06;101740.88;;;7.84;100.00
70015;BME280;57358;51.094;6.760;2023-04-08T01:37:35;101744.31;;;7.86;100.00
70015;BME280;57358;51.094;6.760;2023-04-08T01:40:03;101712.03;;;7.52;100.00
70015;BME280;57358;51.094;6.760;2023-04-08T01:42:32;101655.06;;;7.31;100.00
70015;BME280;57358;51.094;6.760;2023-04-08T01:44:59;101737.38;;;7.85;100.00
70015;BME280;57358;51.094;6.760;2023-04-08T01:47:26;101739.09;;;7.86;100.00
70015;BME280;57358;51.094;6.760;2023-04-08T01:49:55;101716.16;;;7.61;100.00
70015;BME280;57358;51.094;6.760;2023-04-08T01:52:22;101759.16;;;7.85;100.00
70015;BME280;57358;51.094;6.760;2023-04-08T01:54:50;101736.59;;;7.81;100.00
70015;BME280;57358;51.094;6.760;2023-04-08T01:57:26;101709.19;;;7.62;100.00
70015;BME280;57358;51.094;6.760;2023-04-08T01:59:56;101741.75;;;7.84;100.00
70015;BME280;57358;51.094;6.760;2023-04-08T02:02:25;101750.81;;;7.69;100.00
70015;BME280;57358;51.094;6.760;2023-04-08T02:04:53;101696.09;;;7.26;100.00
70015;BME280;57358;51.094;6.760;2023-04-08T02:07:20;101727.81;;;7.48;100.00
70015;BME280;57358;51.094;6.760;2023-04-08T02:09:46;101754.56;;;7.57;100.00
70015;BME280;57358;51.094;6.760;2023-04-08T02:12:13;101729.75;;;7.38;100.00
70015;BME280;57358;51.094;6.760;2023-04-08T02:14:39;101747.97;;;7.41;100.00
70015;BME280;57358;51.094;6.760;2023-04-08T02:17:12;101751.47;;;7.40;100.00
70015;BME280;57358;51.094;6.760;2023-04-08T02:22:44;101755.78;;;7.41;100.00
70015;BME280;57358;51.094;6.760;2023-04-08T02:25:14;101711.13;;;7.14;100.00
70015;BME280;57358;51.094;6.760;2023-04-08T02:27:42;101661.28;;;6.86;100.00
70015;BME280;57358;51.094;6.760;2023-04-08T02:30:10;101755.66;;;7.47;100.00
70015;BME280;57358;51.094;6.760;2023-04-08T02:32:38;101754.66;;;7.53;100.00
70015;BME280;57358;51.094;6.760;2023-04-08T02:35:05;101747.69;;;7.53;100.00
70015;BME280;57358;51.094;6.760;2023-04-08T02:37:33;101757.28;;;7.53;100.00
70015;BME280;57358;51.094;6.760;2023-04-08T02:39:59;101761.38;;;7.65;100.00
70015;BME280;57358;51.094;6.760;2023-04-08T02:42:26;101756.03;;;7.69;100.00
70015;BME280;57358;51.094;6.760;2023-04-08T02:44:52;101756.03;;;7.69;100.00
70015;BME280;57358;51.094;6.760;2023-04-08T02:47:18;101756.97;;;7.67;100.00
70015;BME280;57358;51.094;6.760;2023-04-08T02:49:45;101754.16;;;7.76;100.00
70015;BME280;57358;51.094;6.760;2023-04-08T02:52:11;101762.06;;;7.73;100.00
70015;BME280;57358;51.094;6.760;2023-04-08T02:54:38;101759.56;;;7.68;100.00
70015;BME280;57358;51.094;6.760;2023-04-08T02:57:04;101761.31;;;7.68;100.00
70015;BME280;57358;51.094;6.760;2023-04-08T02:59:30;101761.19;;;7.72;100.00
70015;BME280;57358;51.094;6.760;2023-04-08T03:01:57;101708.91;;;7.36;100.00
70015;BME280;57358;51.094;6.760;2023-04-08T03:04:23;101764.84;;;7.65;100.00
70015;BME280;57358;51.094;6.760;2023-04-08T03:06:50;101766.03;;;7.52;100.00
70015;BME280;57358;51.094;6.760;2023-04-08T03:09:16;101758.22;;;7.50;100.00
70015;BME280;57358;51.094;6.760;2023-04-08T03:11:43;101766.53;;;7.68;100.00
70015;BME280;57358;51.094;6.760;2023-04-08T03:14:10;101708.06;;;7.36;100.00
70015;BME280;57358;51.094;6.760;2023-04-08T03:16:36;101769.84;;;7.76;100.00
70015;BME280;57358;51.094;6.760;2023-04-08T03:19:03;101740.75;;;7.52;100.00
70015;BME280;57358;51.094;6.760;2023-04-08T03:21:29;101771.69;;;7.71;100.00
70015;BME280;57358;51.094;6.760;2023-04-08T03:23:57;101709.88;;;7.31;100.00
70015;BME280;57358;51.094;6.760;2023-04-08T03:26:23;101768.91;;;7.78;100.00
70015;BME280;57358;51.094;6.760;2023-04-08T03:28:54;101778.88;;;7.59;100.00
70015;BME280;57358;51.094;6.760;2023-04-08T03:31:21;101779.66;;;7.65;100.00
70015;BME280;57358;51.094;6.760;2023-04-08T03:33:47;101770.16;;;7.61;100.00
70015;BME280;57358;51.094;6.760;2023-04-08T03:36:13;101791.78;;;7.67;100.00
70015;BME280;57358;51.094;6.760;2023-04-08T03:38:40;101782.44;;;7.57;100.00
70015;BME280;57358;51.094;6.760;2023-04-08T03:41:07;101788.34;;;7.65;100.00
70015;BME280;57358;51.094;6.760;2023-04-08T03:43:33;101752.47;;;7.34;100.00
70015;BME280;57358;51.094;6.760;2023-04-08T03:46:03;101794.44;;;7.66;100.00
70015;BME280;57358;51.094;6.760;2023-04-08T03:48:29;101797.91;;;7.68;100.00
70015;BME280;57358;51.094;6.760;2023-04-08T03:50:56;101767.81;;;7.50;100.00
70015;BME280;57358;51.094;6.760;2023-04-08T03:53:22;101795.28;;;7.68;100.00
70015;BME280;57358;51.094;6.760;2023-04-08T03:55:49;101747.16;;;7.37;100.00
70015;BME280;57358;51.094;6.760;2023-04-08T03:58:18;101800.31;;;7.75;100.00
70015;BME280;57358;51.094;6.760;2023-04-08T04:00:44;101799.47;;;7.75;100.00
70015;BME280;57358;51.094;6.760;2023-04-08T04:03:11;101801.38;;;7.67;100.00
70015;BME280;57358;51.094;6.760;2023-04-08T04:05:39;101799.47;;;7.75;100.00
70015;BME280;57358;51.094;6.760;2023-04-08T04:08:06;101800.28;;;7.77;100.00
70015;BME280;57358;51.094;6.760;2023-04-08T04:10:32;101799.41;;;7.78;100.00
70015;BME280;57358;51.094;6.760;2023-04-08T04:13:01;101797.03;;;7.66;100.00
70015;BME280;57358;51.094;6.760;2023-04-08T04:15:27;101762.38;;;7.59;100.00
70015;BME280;57358;51.094;6.760;2023-04-08T04:17:54;101795.75;;;7.84;100.00
70015;BME280;57358;51.094;6.760;2023-04-08T04:20:20;101799.16;;;7.89;100.00
70015;BME280;57358;51.094;6.760;2023-04-08T04:22:47;101806.97;;;7.90;100.00
70015;BME280;57358;51.094;6.760;2023-04-08T04:25:13;101802.72;;;7.85;100.00
70015;BME280;57358;51.094;6.760;2023-04-08T04:27:40;101803.69;;;7.81;100.00
70015;BME280;57358;51.094;6.760;2023-04-08T04:30:06;101755.59;;;7.50;100.00
70015;BME280;57358;51.094;6.760;2023-04-08T04:32:34;101809.94;;;7.73;100.00
70015;BME280;57358;51.094;6.760;2023-04-08T04:35:01;101812.72;;;7.66;100.00
70015;BME280;57358;51.094;6.760;2023-04-08T04:37:27;101765.56;;;7.33;100.00
70015;BME280;57358;51.094;6.760;2023-04-08T04:39:53;101799.31;;;7.42;100.00
70015;BME280;57358;51.094;6.760;2023-04-08T04:42:20;101778.75;;;7.27;100.00
70015;BME280;57358;51.094;6.760;2023-04-08T04:44:46;101823.13;;;7.67;100.00
70015;BME280;57358;51.094;6.760;2023-04-08T04:47:13;101821.56;;;7.60;100.00
70015;BME280;57358;51.094;6.760;2023-04-08T04:49:39;101826.25;;;7.44;100.00
70015;BME280;57358;51.094;6.760;2023-04-08T04:52:05;101822.16;;;7.31;100.00
70015;BME280;57358;51.094;6.760;2023-04-08T04:54:32;101672.06;;;6.24;100.00
70015;BME280;57358;51.094;6.760;2023-04-08T04:56:59;101826.31;;;7.41;100.00
70015;BME280;57358;51.094;6.760;2023-04-08T04:59:26;101811.75;;;7.29;100.00
70015;BME280;57358;51.094;6.760;2023-04-08T05:01:52;101816.25;;;7.23;100.00
70015;BME280;57358;51.094;6.760;2023-04-08T05:04:19;101827.53;;;7.25;100.00
70015;BME280;57358;51.094;6.760;2023-04-08T05:06:45;101792.44;;;6.96;100.00
70015;BME280;57358;51.094;6.760;2023-04-08T05:09:12;101831.94;;;7.21;100.00
70015;BME280;57358;51.094;6.760;2023-04-08T05:11:38;101828.50;;;7.19;100.00
70015;BME280;57358;51.094;6.760;2023-04-08T05:14:05;101835.41;;;7.22;100.00
70015;BME280;57358;51.094;6.760;2023-04-08T05:16:32;101815.97;;;6.93;100.00
70015;BME280;57358;51.094;6.760;2023-04-08T05:18:59;101784.06;;;6.78;100.00
70015;BME280;57358;51.094;6.760;2023-04-08T05:21:26;101775.50;;;6.70;100.00
70015;BME280;57358;51.094;6.760;2023-04-08T05:23:53;101838.34;;;7.06;100.00
70015;BME280;57358;51.094;6.760;2023-04-08T05:26:19;101838.72;;;6.85;100.00
70015;BME280;57358;51.094;6.760;2023-04-08T05:28:49;101764.47;;;6.56;100.00
70015;BME280;57358;51.094;6.760;2023-04-08T05:31:18;101839.97;;;7.12;100.00
70015;BME280;57358;51.094;6.760;2023-04-08T05:33:45;101848.78;;;7.05;100.00
70015;BME280;57358;51.094;6.760;2023-04-08T05:36:12;101818.53;;;6.96;100.00
70015;BME280;57358;51.094;6.760;2023-04-08T05:38:39;101845.91;;;7.20;100.00
70015;BME280;57358;51.094;6.760;2023-04-08T05:41:06;101848.31;;;7.29;100.00
70015;BME280;57358;51.094;6.760;2023-04-08T05:43:32;101828.44;;;7.22;100.00
70015;BME280;57358;51.094;6.760;2023-04-08T05:45:59;101862.97;;;7.36;100.00
70015;BME280;57358;51.094;6.760;2023-04-08T05:48:25;101858.47;;;7.45;100.00
70015;BME280;57358;51.094;6.760;2023-04-08T05:50:52;101792.03;;;7.16;100.00
70015;BME280;57358;51.094;6.760;2023-04-08T05:53:18;101859.03;;;7.59;100.00
70015;BME280;57358;51.094;6.760;2023-04-08T05:55:47;101868.78;;;7.49;100.00
70015;BME280;57358;51.094;6.760;2023-04-08T05:58:13;101867.66;;;7.63;100.00
70015;BME280;57358;51.094;6.760;2023-04-08T06:00:41;101872.75;;;7.69;100.00
70015;BME280;57358;51.094;6.760;2023-04-08T06:03:07;101865.84;;;7.66;100.00
70015;BME280;57358;51.094;6.760;2023-04-08T06:05:34;101870.84;;;7.77;100.00
70015;BME280;57358;51.094;6.760;2023-04-08T06:08:00;101794.16;;;7.37;100.00
70015;BME280;57358;51.094;6.760;2023-04-08T06:10:27;101873.31;;;7.83;100.00
70015;BME280;57358;51.094;6.760;2023-04-08T06:12:53;101878.91;;;8.07;100.00
70015;BME280;57358;51.094;6.760;2023-04-08T06:15:20;101873.22;;;8.25;100.00
70015;BME280;57358;51.094;6.760;2023-04-08T06:17:47;101809.66;;;7.86;100.00
70015;BME280;57358;51.094;6.760;2023-04-08T06:20:13;101875.47;;;8.05;100.00
70015;BME280;57358;51.094;6.760;2023-04-08T06:22:40;101868.63;;;7.97;100.00
70015;BME280;57358;51.094;6.760;2023-04-08T06:25:06;101709.69;;;6.99;100.00
70015;BME280;57358;51.094;6.760;2023-04-08T06:27:33;101867.34;;;7.78;100.00
70015;BME280;57358;51.094;6.760;2023-04-08T06:29:59;101864.81;;;7.73;100.00
70015;BME280;57358;51.094;6.760;2023-04-08T06:32:26;101880.59;;;7.69;100.00
70015;BME280;57358;51.094;6.760;2023-04-08T06:34:52;101878.75;;;7.74;100.00
70015;BME280;57358;51.094;6.760;2023-04-08T06:37:18;101863.00;;;7.77;100.00
70015;BME280;57358;51.094;6.760;2023-04-08T06:39:45;101883.19;;;8.09;100.00
70015;BME280;57358;51.094;6.760;2023-04-08T06:42:12;101887.44;;;8.52;100.00
70015;BME280;57358;51.094;6.760;2023-04-08T06:44:38;101884.22;;;8.39;100.00
70015;BME280;57358;51.094;6.760;2023-04-08T06:47:04;101885.31;;;8.68;100.00
70015;BME280;57358;51.094;6.760;2023-04-08T06:49:31;101892.13;;;9.08;100.00
70015;BME280;57358;51.094;6.760;2023-04-08T06:51:57;101887.06;;;9.02;100.00
70015;BME280;57358;51.094;6.760;2023-04-08T06:54:24;101821.03;;;8.58;100.00
70015;BME280;57358;51.094;6.760;2023-04-08T06:56:50;101882.66;;;9.04;100.00
70015;BME280;57358;51.094;6.760;2023-04-08T06:59:17;101876.69;;;8.97;100.00
70015;BME280;57358;51.094;6.760;2023-04-08T07:01:43;101881.75;;;9.36;100.00
70015;BME280;57358;51.094;6.760;2023-04-08T07:04:10;101824.97;;;9.37;100.00
70015;BME280;57358;51.094;6.760;2023-04-08T07:06:36;101835.59;;;9.32;100.00
70015;BME280;57358;51.094;6.760;2023-04-08T07:09:03;101881.72;;;9.68;100.00
70015;BME280;57358;51.094;6.760;2023-04-08T07:11:30;101892.59;;;9.84;100.00
70015;BME280;57358;51.094;6.760;2023-04-08T07:13:56;101880.19;;;9.90;100.00
70015;BME280;57358;51.094;6.760;2023-04-08T07:16:22;101879.50;;;9.54;100.00
70015;BME280;57358;51.094;6.760;2023-04-08T07:18:49;101823.13;;;9.41;100.00
70015;BME280;57358;51.094;6.760;2023-04-08T07:21:17;101855.63;;;9.65;100.00
70015;BME280;57358;51.094;6.760;2023-04-08T07:23:43;101807.47;;;9.37;100.00
70015;BME280;57358;51.094;6.760;2023-04-08T07:26:10;101879.91;;;9.99;100.00
70015;BME280;57358;51.094;6.760;2023-04-08T07:28:36;101878.47;;;9.89;100.00
70015;BME280;57358;51.094;6.760;2023-04-08T07:31:17;101876.88;;;9.84;100.00
70015;BME280;57358;51.094;6.760;2023-04-08T07:33:44;101870.38;;;9.67;100.00
70015;BME280;57358;51.094;6.760;2023-04-08T07:36:12;101559.25;;;7.67;100.00
70015;BME280;57358;51.094;6.760;2023-04-08T07:38:41;101883.28;;;9.75;100.00
70015;BME280;57358;51.094;6.760;2023-04-08T07:41:07;101877.28;;;9.99;100.00
70015;BME280;57358;51.094;6.760;2023-04-08T07:43:34;101880.59;;;10.34;100.00
70015;BME280;57358;51.094;6.760;2023-04-08T07:46:06;101809.84;;;10.03;100.00
70015;BME280;57358;51.094;6.760;2023-04-08T07:48:33;101783.66;;;10.02;100.00
70015;BME280;57358;51.094;6.760;2023-04-08T07:51:04;101868.97;;;10.42;100.00
70015;BME280;57358;51.094;6.760;2023-04-08T07:53:35;101862.63;;;10.49;100.00
70015;BME280;57358;51.094;6.760;2023-04-08T07:56:02;101797.75;;;9.99;100.00
70015;BME280;57358;51.094;6.760;2023-04-08T07:58:29;101806.25;;;9.79;100.00
70015;BME280;57358;51.094;6.760;2023-04-08T08:00:57;101873.13;;;10.21;100.00
70015;BME280;57358;51.094;6.760;2023-04-08T08:03:24;101863.88;;;10.09;100.00
70015;BME280;57358;51.094;6.760;2023-04-08T08:05:51;101887.34;;;10.13;100.00
70015;BME280;57358;51.094;6.760;2023-04-08T08:08:18;101884.94;;;10.06;100.00
70015;BME280;57358;51.094;6.760;2023-04-08T08:10:44;101889.97;;;10.13;100.00
70015;BME280;57358;51.094;6.760;2023-04-08T08:13:11;101848.81;;;9.87;100.00
70015;BME280;57358;51.094;6.760;2023-04-08T08:15:42;101874.19;;;9.87;100.00
70015;BME280;57358;51.094;6.760;2023-04-08T08:18:08;101835.53;;;9.64;100.00
70015;BME280;57358;51.094;6.760;2023-04-08T08:20:35;101885.09;;;10.01;100.00
70015;BME280;57358;51.094;6.760;2023-04-08T08:23:01;101893.66;;;10.36;100.00
70015;BME280;57358;51.094;6.760;2023-04-08T08:25:28;101884.44;;;10.51;100.00
70015;BME280;57358;51.094;6.760;2023-04-08T08:27:54;101877.97;;;10.61;100.00
70015;BME280;57358;51.094;6.760;2023-04-08T08:30:20;101827.84;;;10.42;100.00
70015;BME280;57358;51.094;6.760;2023-04-08T08:32:47;101879.06;;;10.81;100.00
70015;BME280;57358;51.094;6.760;2023-04-08T08:35:15;101879.53;;;10.92;100.00
70015;BME280;57358;51.094;6.760;2023-04-08T08:37:41;101854.94;;;10.69;100.00
70015;BME280;57358;51.094;6.760;2023-04-08T08:40:08;101811.47;;;9.79;100.00
70015;BME280;57358;51.094;6.760;2023-04-08T08:42:35;101863.50;;;10.21;100.00
70015;BME280;57358;51.094;6.760;2023-04-08T08:45:02;101768.00;;;9.72;100.00
70015;BME280;57358;51.094;6.760;2023-04-08T08:47:29;101863.25;;;10.30;100.00
70015;BME280;57358;51.094;6.760;2023-04-08T08:49:56;101850.34;;;10.49;100.00
70015;BME280;57358;51.094;6.760;2023-04-08T08:52:22;101839.09;;;10.72;100.00
70015;BME280;57358;51.094;6.760;2023-04-08T08:54:57;101875.47;;;10.83;100.00
70015;BME280;57358;51.094;6.760;2023-04-08T08:57:23;101857.41;;;10.74;100.00
70015;BME280;57358;51.094;6.760;2023-04-08T08:59:50;101857.56;;;10.69;100.00
70015;BME280;57358;51.094;6.760;2023-04-08T09:04:57;101857.25;;;10.52;100.00
70015;BME280;57358;51.094;6.760;2023-04-08T09:07:25;101858.63;;;10.64;100.00
70015;BME280;57358;51.094;6.760;2023-04-08T09:09:53;101796.41;;;9.86;100.00
70015;BME280;57358;51.094;6.760;2023-04-08T09:12:19;101871.38;;;10.21;100.00
70015;BME280;57358;51.094;6.760;2023-04-08T09:14:46;101856.94;;;10.06;100.00
70015;BME280;57358;51.094;6.760;2023-04-08T09:17:16;101877.06;;;10.35;100.00
70015;BME280;57358;51.094;6.760;2023-04-08T09:20:06;101870.13;;;10.05;100.00
70015;BME280;57358;51.094;6.760;2023-04-08T09:22:57;101875.84;;;10.17;100.00
70015;BME280;57358;51.094;6.760;2023-04-08T09:25:29;101882.31;;;10.35;100.00
70015;BME280;57358;51.094;6.760;2023-04-08T09:27:58;101889.38;;;10.60;100.00
70015;BME280;57358;51.094;6.760;2023-04-08T09:30:25;101871.28;;;10.52;100.00
70015;BME280;57358;51.094;6.760;2023-04-08T09:32:54;101875.44;;;10.58;100.00
70015;BME280;57358;51.094;6.760;2023-04-08T09:35:22;101868.22;;;10.38;100.00
70015;BME280;57358;51.094;6.760;2023-04-08T09:37:49;101878.41;;;10.47;100.00
70015;BME280;57358;51.094;6.760;2023-04-08T09:40:17;101877.31;;;10.26;100.00
70015;BME280;57358;51.094;6.760;2023-04-08T09:42:47;101826.31;;;10.08;100.00
70015;BME280;57358;51.094;6.760;2023-04-08T09:45:17;101885.19;;;10.54;100.00
70015;BME280;57358;51.094;6.760;2023-04-08T09:48:07;101882.72;;;10.22;100.00
70015;BME280;57358;51.094;6.760;2023-04-08T09:50:39;101883.72;;;10.46;100.00
70015;BME280;57358;51.094;6.760;2023-04-08T09:53:12;101893.97;;;10.25;100.00
70015;BME280;57358;51.094;6.760;2023-04-08T09:55:42;101895.19;;;10.43;100.00
70015;BME280;57358;51.094;6.760;2023-04-08T09:58:15;101884.88;;;10.37;100.00
70015;BME280;57358;51.094;6.760;2023-04-08T10:00:46;101896.47;;;10.28;100.00
70015;BME280;57358;51.094;6.760;2023-04-08T10:03:34;101897.41;;;10.27;100.00
70015;BME280;57358;51.094;6.760;2023-04-08T10:06:02;101892.19;;;10.26;100.00
70015;BME280;57358;51.094;6.760;2023-04-08T10:08:30;101903.53;;;10.26;100.00
70015;BME280;57358;51.094;6.760;2023-04-08T10:10:58;101898.03;;;10.07;100.00
70015;BME280;57358;51.094;6.760;2023-04-08T10:13:26;101903.66;;;9.95;100.00
70015;BME280;57358;51.094;6.760;2023-04-08T10:18:42;101908.28;;;10.15;100.00
70015;BME280;57358;51.094;6.760;2023-04-08T10:21:35;101909.91;;;10.47;100.00
70015;BME280;57358;51.094;6.760;2023-04-08T10:24:06;101899.00;;;10.60;100.00
70015;BME280;57358;51.094;6.760;2023-04-08T10:26:33;101902.13;;;10.72;100.00
70015;BME280;57358;51.094;6.760;2023-04-08T10:29:28;101895.94;;;10.73;100.00
70015;BME280;57358;51.094;6.760;2023-04-08T10:31:55;101891.69;;;10.69;100.00
70015;BME280;57358;51.094;6.760;2023-04-08T10:34:25;101886.22;;;10.75;100.00
70015;BME280;57358;51.094;6.760;2023-04-08T10:36:54;101875.22;;;10.64;100.00
70015;BME280;57358;51.094;6.760;2023-04-08T10:39:21;101875.50;;;10.56;100.00
70015;BME280;57358;51.094;6.760;2023-04-08T10:41:49;101867.44;;;10.63;100.00
70015;BME280;57358;51.094;6.760;2023-04-08T10:44:24;101852.75;;;10.82;100.00
70015;BME280;57358;51.094;6.760;2023-04-08T10:46:52;101860.81;;;10.76;100.00
70015;BME280;57358;51.094;6.760;2023-04-08T10:49:19;101854.00;;;10.70;100.00
70015;BME280;57358;51.094;6.760;2023-04-08T10:51:47;101843.41;;;10.73;100.00
70015;BME280;57358;51.094;6.760;2023-04-08T10:54:16;101783.50;;;10.34;100.00
70015;BME280;57358;51.094;6.760;2023-04-08T10:56:50;101848.88;;;10.67;100.00
70015;BME280;57358;51.094;6.760;2023-04-08T10:59:30;101838.81;;;10.80;100.00
70015;BME280;57358;51.094;6.760;2023-04-08T11:02:00;101858.16;;;11.03;100.00
70015;BME280;57358;51.094;6.760;2023-04-08T11:04:28;101775.75;;;10.82;99.22
70015;BME280;57358;51.094;6.760;2023-04-08T11:06:54;101770.97;;;10.68;98.51
70015;BME280;57358;51.094;6.760;2023-04-08T11:09:21;101743.22;;;10.35;98.75
70015;BME280;57358;51.094;6.760;2023-04-08T11:11:47;101809.09;;;10.54;98.94
70015;BME280;57358;51.094;6.760;2023-04-08T11:14:15;101834.03;;;11.16;98.46
70015;BME280;57358;51.094;6.760;2023-04-08T11:16:44;101790.84;;;11.24;96.12
70015;BME280;57358;51.094;6.760;2023-04-08T11:19:12;101714.72;;;10.98;91.58
70015;BME280;57358;51.094;6.760;2023-04-08T11:21:38;101717.97;;;11.05;87.53
70015;BME280;57358;51.094;6.760;2023-04-08T11:24:09;101731.72;;;10.88;88.82
70015;BME280;57358;51.094;6.760;2023-04-08T11:26:37;101663.75;;;10.57;87.83
70015;BME280;57358;51.094;6.760;2023-04-08T11:29:04;101717.59;;;11.14;86.72
70015;BME280;57358;51.094;6.760;2023-04-08T11:31:32;101744.00;;;11.79;84.92
70015;BME280;57358;51.094;6.760;2023-04-08T11:33:59;101659.22;;;11.94;80.82
70015;BME280;57358;51.094;6.760;2023-04-08T11:36:27;101674.97;;;12.56;77.97
70015;BME280;57358;51.094;6.760;2023-04-08T11:38:54;101536.25;;;11.79;76.00
70015;BME280;57358;51.094;6.760;2023-04-08T11:41:21;101498.75;;;11.94;73.09
70015;BME280;57358;51.094;6.760;2023-04-08T11:43:52;101604.97;;;12.71;72.70
70015;BME280;57358;51.094;6.760;2023-04-08T11:46:18;101542.00;;;12.08;72.63
70015;BME280;57358;51.094;6.760;2023-04-08T11:48:59;101565.09;;;12.60;71.56
70015;BME280;57358;51.094;6.760;2023-04-08T11:51:26;101581.09;;;12.36;73.16
70015;BME280;57358;51.094;6.760;2023-04-08T11:53:53;101574.34;;;12.68;73.36
70015;BME280;57358;51.094;6.760;2023-04-08T11:56:22;101588.19;;;12.91;73.08
70015;BME280;57358;51.094;6.760;2023-04-08T11:58:50;101530.94;;;12.39;72.01
70015;BME280;57358;51.094;6.760;2023-04-08T12:01:17;101507.16;;;12.03;73.64
70015;BME280;57358;51.094;6.760;2023-04-08T12:03:57;101545.13;;;11.97;74.60
70015;BME280;57358;51.094;6.760;2023-04-08T12:06:25;101533.38;;;11.65;75.39
70015;BME280;57358;51.094;6.760;2023-04-08T12:08:55;101540.63;;;11.17;78.19
70015;BME280;57358;51.094;6.760;2023-04-08T12:11:22;101529.69;;;11.06;80.02
70015;BME280;57358;51.094;6.760;2023-04-08T12:13:49;101610.91;;;11.54;80.07
70015;BME280;57358;51.094;6.760;2023-04-08T12:16:17;101613.34;;;11.80;79.86
70015;BME280;57358;51.094;6.760;2023-04-08T12:18:43;101598.69;;;11.74;78.47
70015;BME280;57358;51.094;6.760;2023-04-08T12:21:10;101556.34;;;11.60;78.56
70015;BME280;57358;51.094;6.760;2023-04-08T12:23:36;101604.38;;;12.06;78.92
70015;BME280;57358;51.094;6.760;2023-04-08T12:26:05;101558.06;;;11.81;76.77
70015;BME280;57358;51.094;6.760;2023-04-08T12:28:32;101573.06;;;11.79;77.40
70015;BME280;57358;51.094;6.760;2023-04-08T12:31:00;101601.84;;;12.03;78.75
70015;BME280;57358;51.094;6.760;2023-04-08T12:33:26;101553.16;;;11.94;75.30
70015;BME280;57358;51.094;6.760;2023-04-08T12:35:53;101562.59;;;11.77;77.77
70015;BME280;57358;51.094;6.760;2023-04-08T12:38:19;101550.84;;;11.66;76.00
70015;BME280;57358;51.094;6.760;2023-04-08T12:40:46;101553.34;;;11.69;75.89
70015;BME280;57358;51.094;6.760;2023-04-08T12:43:15;101547.47;;;11.62;75.89
70015;BME280;57358;51.094;6.760;2023-04-08T12:45:41;101532.63;;;11.82;74.63
70015;BME280;57358;51.094;6.760;2023-04-08T12:48:08;101551.97;;;12.01;75.94
70015;BME280;57358;51.094;6.760;2023-04-08T12:50:35;101399.56;;;10.98;75.28
70015;BME280;57358;51.094;6.760;2023-04-08T12:53:02;101509.09;;;12.18;73.30
70015;BME280;57358;51.094;6.760;2023-04-08T12:55:28;101445.84;;;12.01;72.17
70015;BME280;57358;51.094;6.760;2023-04-08T12:57:54;101502.81;;;12.21;72.86
70015;BME280;57358;51.094;6.760;2023-04-08T13:00:21;101420.06;;;11.90;70.01
70015;BME280;57358;51.094;6.760;2023-04-08T13:02:48;101341.41;;;11.84;66.67